createdAt,value
2018-04-14T00:00:36.500Z,1025.74
2018-04-14T00:01:36.494Z,1025.75
2018-04-14T00:02:36.486Z,1025.76
2018-04-14T00:03:36.480Z,1025.74
2018-04-14T00:04:36.478Z,1025.78
2018-04-14T00:05:36.468Z,1025.75
2018-04-14T00:06:36.459Z,1025.76
2018-04-14T00:07:36.453Z,1025.69
2018-04-14T00:08:36.447Z,1025.72
2018-04-14T00:09:36.439Z,1025.68
2018-04-14T00:10:36.432Z,1025.67
2018-04-14T00:11:36.425Z,1025.67
2018-04-14T00:12:36.420Z,1025.63
2018-04-14T00:13:36.412Z,1025.63
2018-04-14T00:14:36.405Z,1025.62
2018-04-14T00:15:36.398Z,1025.62
2018-04-14T00:16:36.394Z,1025.62
2018-04-14T00:17:36.385Z,1025.65
2018-04-14T00:18:36.378Z,1025.6
2018-04-14T00:19:36.383Z,1025.58
2018-04-14T00:20:36.364Z,1025.58
2018-04-14T00:21:36.356Z,1025.62
2018-04-14T00:22:36.351Z,1025.61
2018-04-14T00:23:36.344Z,1025.57
2018-04-14T00:24:36.337Z,1025.59
2018-04-14T00:25:36.330Z,1025.59
2018-04-14T00:26:36.324Z,1025.58
2018-04-14T00:27:36.319Z,1025.55
2018-04-14T00:28:36.312Z,1025.55
2018-04-14T00:29:36.305Z,1025.55
2018-04-14T00:30:36.296Z,1025.58
2018-04-14T00:31:36.290Z,1025.62
2018-04-14T00:32:36.283Z,1025.63
2018-04-14T00:33:36.276Z,1025.65
2018-04-14T00:34:36.272Z,1025.69
2018-04-14T00:35:36.262Z,1025.66
2018-04-14T00:36:36.255Z,1025.7
2018-04-14T00:37:36.249Z,1025.7
2018-04-14T00:38:36.243Z,1025.7
2018-04-14T00:39:36.258Z,1025.67
2018-04-14T00:40:36.229Z,1025.68
2018-04-14T00:41:36.226Z,1025.7
2018-04-14T00:42:36.213Z,1025.68
2018-04-14T00:43:36.208Z,1025.75
2018-04-14T00:44:36.201Z,1025.73
2018-04-14T00:45:36.194Z,1025.73
2018-04-14T00:46:36.186Z,1025.74
2018-04-14T00:47:36.180Z,1025.76
2018-04-14T00:48:36.173Z,1025.74
2018-04-14T00:49:36.166Z,1025.77
2018-04-14T00:50:36.163Z,1025.82
2018-04-14T00:51:36.153Z,1025.77
2018-04-14T00:52:36.146Z,1025.8
2018-04-14T00:53:36.138Z,1025.79
2018-04-14T00:54:36.134Z,1025.77
2018-04-14T00:55:36.128Z,1025.78
2018-04-14T00:56:36.118Z,1025.81
2018-04-14T00:57:36.111Z,1025.82
2018-04-14T00:58:36.105Z,1025.85
2018-04-14T00:59:36.098Z,1025.83
2018-04-14T01:00:36.090Z,1025.85
2018-04-14T01:01:36.083Z,1025.87
2018-04-14T01:02:36.076Z,1025.89
2018-04-14T01:03:36.070Z,1025.85
2018-04-14T01:04:36.063Z,1025.86
2018-04-14T01:05:36.060Z,1025.84
2018-04-14T01:06:36.049Z,1025.88
2018-04-14T01:07:36.043Z,1025.82
2018-04-14T01:08:36.036Z,1025.85
2018-04-14T01:09:36.030Z,1025.85
2018-04-14T01:10:36.024Z,1025.87
2018-04-14T01:11:36.019Z,1025.88
2018-04-14T01:12:36.010Z,1025.89
2018-04-14T01:13:36.002Z,1026.02
2018-04-14T01:14:35.996Z,1026.04
2018-04-14T01:15:35.988Z,1026.04
2018-04-14T01:16:35.982Z,1026.06
2018-04-14T01:17:35.975Z,1026.11
2018-04-14T01:18:35.968Z,1026.08
2018-04-14T01:19:35.961Z,1026.09
2018-04-14T01:20:35.954Z,1026.1
2018-04-14T01:21:35.947Z,1026.13
2018-04-14T01:22:35.942Z,1026.1
2018-04-14T01:23:35.934Z,1026.11
2018-04-14T01:24:35.928Z,1026.13
2018-04-14T01:25:35.921Z,1026.14
2018-04-14T01:26:35.912Z,1026.12
2018-04-14T01:27:35.906Z,1026.13
2018-04-14T01:28:35.899Z,1026.19
2018-04-14T01:29:35.892Z,1026.17
2018-04-14T01:30:35.885Z,1026.2
2018-04-14T01:31:35.879Z,1026.23
2018-04-14T01:32:35.871Z,1026.21
2018-04-14T01:33:35.863Z,1026.24
2018-04-14T01:34:35.857Z,1026.24
2018-04-14T01:35:35.851Z,1026.24
2018-04-14T01:36:35.843Z,1026.29
2018-04-14T01:37:35.836Z,1026.25
2018-04-14T01:38:35.829Z,1026.26
2018-04-14T01:39:35.833Z,1026.25
2018-04-14T01:40:35.820Z,1026.24
2018-04-14T01:41:35.808Z,1026.25
2018-04-14T01:42:35.800Z,1026.23
2018-04-14T01:43:35.794Z,1026.24
2018-04-14T01:44:35.786Z,1026.27
2018-04-14T01:45:35.779Z,1026.33
2018-04-14T01:46:35.773Z,1026.24
2018-04-14T01:47:35.767Z,1026.24
2018-04-14T01:48:35.759Z,1026.26
2018-04-14T01:49:35.752Z,1026.21
2018-04-14T01:50:35.744Z,1026.25
2018-04-14T01:51:35.736Z,1026.21
2018-04-14T01:52:35.731Z,1026.24
2018-04-14T01:53:35.724Z,1026.25
2018-04-14T01:54:35.716Z,1026.21
2018-04-14T01:55:35.708Z,1026.21
2018-04-14T01:56:35.702Z,1026.19
2018-04-14T01:57:35.695Z,1026.14
2018-04-14T01:58:35.688Z,1026.19
2018-04-14T01:59:35.680Z,1026.17
2018-04-14T02:00:35.673Z,1026.16
2018-04-14T02:01:35.667Z,1026.14
2018-04-14T02:02:35.659Z,1026.12
2018-04-14T02:03:35.652Z,1026.11
2018-04-14T02:04:35.694Z,1026.1
2018-04-14T02:05:35.641Z,1026.11
2018-04-14T02:06:35.630Z,1026.09
2018-04-14T02:07:35.623Z,1026.03
2018-04-14T02:08:35.617Z,1026.07
2018-04-14T02:09:35.611Z,1026.04
2018-04-14T02:10:35.602Z,1026.05
2018-04-14T02:11:35.595Z,1026.09
2018-04-14T02:12:35.589Z,1026.04
2018-04-14T02:13:35.581Z,1026.03
2018-04-14T02:14:35.573Z,1026.04
2018-04-14T02:15:35.567Z,1026.02
2018-04-14T02:16:35.559Z,1026.07
2018-04-14T02:17:35.557Z,1026.05
2018-04-14T02:18:35.555Z,1026.05
2018-04-14T02:19:35.538Z,1026.05
2018-04-14T02:20:35.532Z,1026.09
2018-04-14T02:21:35.523Z,1026.07
2018-04-14T02:22:35.517Z,1026.09
2018-04-14T02:23:35.510Z,1026.1
2018-04-14T02:24:35.503Z,1026.1
2018-04-14T02:25:35.495Z,1026.07
2018-04-14T02:26:35.492Z,1026.07
2018-04-14T02:27:35.482Z,1026.05
2018-04-14T02:28:35.473Z,1026.07
2018-04-14T02:29:35.467Z,1026.05
2018-04-14T02:30:35.466Z,1026.03
2018-04-14T02:31:35.468Z,1025.99
2018-04-14T02:32:35.445Z,1025.98
2018-04-14T02:33:35.439Z,1025.96
2018-04-14T02:34:35.436Z,1025.96
2018-04-14T02:35:35.424Z,1025.96
2018-04-14T02:36:35.417Z,1025.95
2018-04-14T02:37:35.411Z,1025.91
2018-04-14T02:38:35.404Z,1025.95
2018-04-14T02:39:35.397Z,1025.89
2018-04-14T02:40:35.390Z,1025.9
2018-04-14T02:41:35.382Z,1025.94
2018-04-14T02:42:35.376Z,1025.86
2018-04-14T02:43:35.369Z,1025.86
2018-04-14T02:44:35.366Z,1025.87
2018-04-14T02:45:35.355Z,1025.9
2018-04-14T02:46:35.348Z,1025.91
2018-04-14T02:47:35.346Z,1025.95
2018-04-14T02:48:35.334Z,1025.98
2018-04-14T02:49:35.342Z,1025.95
2018-04-14T02:50:35.320Z,1025.99
2018-04-14T02:51:35.313Z,1026.01
2018-04-14T02:52:35.306Z,1026.01
2018-04-14T02:53:35.298Z,1026.04
2018-04-14T02:54:35.291Z,1026.01
2018-04-14T02:55:35.285Z,1026.03
2018-04-14T02:56:35.279Z,1026.03
2018-04-14T02:57:35.272Z,1026
2018-04-14T02:58:35.266Z,1026
2018-04-14T02:59:35.256Z,1026.01
2018-04-14T03:00:35.251Z,1025.99
2018-04-14T03:01:35.242Z,1025.93
2018-04-14T03:02:35.236Z,1025.98
2018-04-14T03:03:35.229Z,1025.95
2018-04-14T03:04:35.222Z,1025.97
2018-04-14T03:05:35.216Z,1026
2018-04-14T03:06:35.208Z,1026.03
2018-04-14T03:07:35.201Z,1026.08
2018-04-14T03:08:35.194Z,1026.14
2018-04-14T03:09:35.222Z,1026.15
2018-04-14T03:10:35.182Z,1026.17
2018-04-14T03:11:35.181Z,1026.08
2018-04-14T03:12:35.165Z,1026.09
2018-04-14T03:13:35.159Z,1026.01
2018-04-14T03:14:35.153Z,1025.98
2018-04-14T03:15:35.145Z,1026
2018-04-14T03:16:35.139Z,1025.99
2018-04-14T03:17:35.134Z,1026.04
2018-04-14T03:18:35.124Z,1026.03
2018-04-14T03:19:35.117Z,1026.04
2018-04-14T03:20:35.111Z,1026.09
2018-04-14T03:21:35.108Z,1026.05
2018-04-14T03:22:35.103Z,1026.06
2018-04-14T03:23:35.091Z,1026.05
2018-04-14T03:24:35.084Z,1026.06
2018-04-14T03:25:35.080Z,1026.09
2018-04-14T03:26:35.070Z,1026.12
2018-04-14T03:27:35.062Z,1026.15
2018-04-14T03:28:35.057Z,1026.2
2018-04-14T03:29:35.049Z,1026.17
2018-04-14T03:30:35.047Z,1026.11
2018-04-14T03:31:35.036Z,1026.11
2018-04-14T03:32:35.032Z,1026.14
2018-04-14T03:33:35.022Z,1026.23
2018-04-14T03:34:35.014Z,1026.34
2018-04-14T03:35:35.008Z,1026.33
2018-04-14T03:36:35.002Z,1026.37
2018-04-14T03:37:35.001Z,1026.41
2018-04-14T03:38:34.988Z,1026.35
2018-04-14T03:39:34.988Z,1026.49
2018-04-14T03:40:34.977Z,1026.49
2018-04-14T03:41:34.981Z,1026.59
2018-04-14T03:42:34.961Z,1026.64
2018-04-14T03:43:34.955Z,1026.63
2018-04-14T03:44:34.950Z,1026.7
2018-04-14T03:45:34.940Z,1026.73
2018-04-14T03:46:34.943Z,1026.8
2018-04-14T03:47:34.927Z,1026.75
2018-04-14T03:48:34.920Z,1026.81
2018-04-14T03:49:34.914Z,1026.79
2018-04-14T03:50:34.908Z,1026.88
2018-04-14T03:51:34.900Z,1026.85
2018-04-14T03:52:34.897Z,1026.93
2018-04-14T03:53:34.887Z,1026.95
2018-04-14T03:54:34.880Z,1026.98
2018-04-14T03:55:34.874Z,1027.04
2018-04-14T03:56:34.866Z,1027.09
2018-04-14T03:57:34.862Z,1027.14
2018-04-14T03:58:34.855Z,1027.2
2018-04-14T03:59:34.845Z,1027.24
2018-04-14T04:00:34.839Z,1027.27
2018-04-14T04:01:34.832Z,1027.29
2018-04-14T04:02:34.826Z,1027.33
2018-04-14T04:03:34.819Z,1027.32
2018-04-14T04:04:34.819Z,1027.4
2018-04-14T04:05:34.806Z,1027.44
2018-04-14T04:06:34.798Z,1027.43
2018-04-14T04:07:34.791Z,1027.52
2018-04-14T04:08:34.784Z,1027.5
2018-04-14T04:09:34.778Z,1027.53
2018-04-14T04:10:34.769Z,1027.57
2018-04-14T04:11:34.763Z,1027.62
2018-04-14T04:12:34.759Z,1027.61
2018-04-14T04:13:34.751Z,1027.57
2018-04-14T04:14:34.742Z,1027.67
2018-04-14T04:15:34.737Z,1027.61
2018-04-14T04:16:34.730Z,1027.65
2018-04-14T04:17:34.723Z,1027.68
2018-04-14T04:18:34.717Z,1027.73
2018-04-14T04:19:34.715Z,1027.75
2018-04-14T04:20:34.704Z,1027.8
2018-04-14T04:21:34.697Z,1027.83
2018-04-14T04:22:34.687Z,1027.83
2018-04-14T04:23:34.681Z,1027.84
2018-04-14T04:24:34.673Z,1027.88
2018-04-14T04:25:34.666Z,1027.88
2018-04-14T04:26:34.660Z,1027.91
2018-04-14T04:27:34.652Z,1027.93
2018-04-14T04:28:34.644Z,1028
2018-04-14T04:29:34.638Z,1027.99
2018-04-14T04:30:34.632Z,1028.01
2018-04-14T04:31:34.625Z,1027.98
2018-04-14T04:32:34.622Z,1028.01
2018-04-14T04:33:34.610Z,1028.08
2018-04-14T04:34:34.609Z,1028.08
2018-04-14T04:35:34.596Z,1028.08
2018-04-14T04:36:34.589Z,1028.1
2018-04-14T04:37:34.581Z,1028.11
2018-04-14T04:38:34.574Z,1028.08
2018-04-14T04:39:34.566Z,1028.12
2018-04-14T04:40:34.560Z,1028.07
2018-04-14T04:41:34.553Z,1028.13
2018-04-14T04:42:34.546Z,1028.16
2018-04-14T04:43:34.538Z,1028.17
2018-04-14T04:44:34.532Z,1028.28
2018-04-14T04:45:34.525Z,1028.28
2018-04-14T04:46:34.523Z,1028.29
2018-04-14T04:47:34.509Z,1028.36
2018-04-14T04:48:34.503Z,1028.35
2018-04-14T04:49:34.497Z,1028.3
2018-04-14T04:50:34.489Z,1028.3
2018-04-14T04:51:34.481Z,1028.32
2018-04-14T04:52:34.475Z,1028.35
2018-04-14T04:53:34.467Z,1028.36
2018-04-14T04:54:34.460Z,1028.37
2018-04-14T04:55:34.453Z,1028.35
2018-04-14T04:56:34.445Z,1028.32
2018-04-14T04:57:34.439Z,1028.37
2018-04-14T04:58:34.436Z,1028.4
2018-04-14T04:59:34.424Z,1028.39
2018-04-14T05:00:34.418Z,1028.38
2018-04-14T05:01:34.413Z,1028.43
2018-04-14T05:02:34.403Z,1028.44
2018-04-14T05:03:34.399Z,1028.39
2018-04-14T05:04:34.389Z,1028.51
2018-04-14T05:05:34.381Z,1028.54
2018-04-14T05:06:34.378Z,1028.47
2018-04-14T05:07:34.367Z,1028.61
2018-04-14T05:08:34.360Z,1028.61
2018-04-14T05:09:34.353Z,1028.65
2018-04-14T05:10:34.345Z,1028.63
2018-04-14T05:11:34.339Z,1028.67
2018-04-14T05:12:34.331Z,1028.69
2018-04-14T05:13:34.324Z,1028.76
2018-04-14T05:14:34.317Z,1028.77
2018-04-14T05:15:34.311Z,1028.8
2018-04-14T05:16:34.302Z,1028.77
2018-04-14T05:17:34.298Z,1028.76
2018-04-14T05:18:34.291Z,1028.85
2018-04-14T05:19:34.282Z,1028.91
2018-04-14T05:20:34.276Z,1028.97
2018-04-14T05:21:34.270Z,1028.95
2018-04-14T05:22:34.262Z,1028.92
2018-04-14T05:23:34.259Z,1028.96
2018-04-14T05:24:34.246Z,1029
2018-04-14T05:25:34.243Z,1029.04
2018-04-14T05:26:34.232Z,1028.96
2018-04-14T05:27:34.225Z,1028.98
2018-04-14T05:28:34.218Z,1029.02
2018-04-14T05:29:34.212Z,1029.07
2018-04-14T05:30:34.205Z,1029.11
2018-04-14T05:31:34.196Z,1029.17
2018-04-14T05:32:34.190Z,1029.2
2018-04-14T05:33:34.184Z,1029.25
2018-04-14T05:34:34.175Z,1029.26
2018-04-14T05:35:34.168Z,1029.24
2018-04-14T05:36:34.161Z,1029.31
2018-04-14T05:37:34.231Z,1029.34
2018-04-14T05:38:34.147Z,1029.35
2018-04-14T05:39:34.140Z,1029.35
2018-04-14T05:40:34.133Z,1029.42
2018-04-14T05:41:34.126Z,1029.42
2018-04-14T05:42:34.124Z,1029.39
2018-04-14T05:43:34.112Z,1029.42
2018-04-14T05:44:34.104Z,1029.45
2018-04-14T05:45:34.097Z,1029.5
2018-04-14T05:46:34.090Z,1029.49
2018-04-14T05:47:34.086Z,1029.46
2018-04-14T05:48:34.077Z,1029.54
2018-04-14T05:49:34.074Z,1029.6
2018-04-14T05:50:34.062Z,1029.55
2018-04-14T05:51:34.055Z,1029.59
2018-04-14T05:52:34.048Z,1029.56
2018-04-14T05:53:34.042Z,1029.58
2018-04-14T05:54:34.034Z,1029.53
2018-04-14T05:55:34.027Z,1029.5
2018-04-14T05:56:34.020Z,1029.5
2018-04-14T05:57:34.015Z,1029.45
2018-04-14T05:58:34.010Z,1029.46
2018-04-14T05:59:33.999Z,1029.49
2018-04-14T06:00:33.992Z,1029.48
2018-04-14T06:01:33.989Z,1029.49
2018-04-14T06:02:33.979Z,1029.52
2018-04-14T06:03:33.971Z,1029.48
2018-04-14T06:04:33.964Z,1029.52
2018-04-14T06:05:33.961Z,1029.57
2018-04-14T06:06:33.951Z,1029.59
2018-04-14T06:07:33.943Z,1029.58
2018-04-14T06:08:33.937Z,1029.57
2018-04-14T06:09:33.930Z,1029.55
2018-04-14T06:10:33.925Z,1029.57
2018-04-14T06:11:33.915Z,1029.55
2018-04-14T06:12:33.909Z,1029.5
2018-04-14T06:13:33.903Z,1029.55
2018-04-14T06:14:33.894Z,1029.49
2018-04-14T06:15:33.888Z,1029.48
2018-04-14T06:16:33.882Z,1029.49
2018-04-14T06:17:33.875Z,1029.5
2018-04-14T06:18:33.868Z,1029.49
2018-04-14T06:19:33.862Z,1029.43
2018-04-14T06:20:33.859Z,1029.43
2018-04-14T06:21:33.848Z,1029.35
2018-04-14T06:22:33.845Z,1029.31
2018-04-14T06:23:33.835Z,1029.24
2018-04-14T06:24:33.829Z,1029.21
2018-04-14T06:25:33.821Z,1029.18
2018-04-14T06:26:33.817Z,1029
2018-04-14T06:27:33.809Z,1029
2018-04-14T06:28:33.811Z,1028.97
2018-04-14T06:29:33.795Z,1029
2018-04-14T06:30:33.790Z,1028.89
2018-04-14T06:31:33.784Z,1028.82
2018-04-14T06:32:33.781Z,1028.66
2018-04-14T06:33:33.771Z,1028.62
2018-04-14T06:34:33.767Z,1028.59
2018-04-14T06:35:33.759Z,1028.56
2018-04-14T06:36:33.752Z,1028.54
2018-04-14T06:37:33.747Z,1028.52
2018-04-14T06:38:33.740Z,1028.36
2018-04-14T06:39:33.735Z,1028.36
2018-04-14T06:40:33.729Z,1028.3
2018-04-14T06:41:33.723Z,1028.17
2018-04-14T06:42:33.718Z,1028.1
2018-04-14T06:43:33.713Z,1027.99
2018-04-14T06:44:33.706Z,1027.9
2018-04-14T06:45:33.702Z,1027.98
2018-04-14T06:46:33.699Z,1028.03
2018-04-14T06:47:33.694Z,1028.02
2018-04-14T06:48:33.686Z,1028.03
2018-04-14T06:49:33.681Z,1028.05
2018-04-14T06:50:33.677Z,1028.06
2018-04-14T06:51:33.671Z,1028.17
2018-04-14T06:52:33.667Z,1028.24
2018-04-14T06:53:33.662Z,1028.32
2018-04-14T06:54:33.657Z,1028.36
2018-04-14T06:55:33.651Z,1028.51
2018-04-14T06:56:33.646Z,1028.61
2018-04-14T06:57:33.647Z,1028.67
2018-04-14T06:58:33.636Z,1028.71
2018-04-14T06:59:33.631Z,1028.69
2018-04-14T07:00:33.628Z,1028.74
2018-04-14T07:01:33.622Z,1028.78
2018-04-14T07:02:33.619Z,1028.8
2018-04-14T07:03:33.611Z,1028.88
2018-04-14T07:04:33.638Z,1028.94
2018-04-14T07:05:33.606Z,1028.91
2018-04-14T07:06:33.596Z,1029.01
2018-04-14T07:07:33.591Z,1029.08
2018-04-14T07:08:33.587Z,1029.11
2018-04-14T07:09:33.580Z,1029.15
2018-04-14T07:10:33.575Z,1029.19
2018-04-14T07:11:33.577Z,1029.25
2018-04-14T07:12:33.580Z,1029.21
2018-04-14T07:13:33.560Z,1029.17
2018-04-14T07:14:33.554Z,1029.11
2018-04-14T07:15:33.549Z,1029.14
2018-04-14T07:16:33.545Z,1029.07
2018-04-14T07:17:33.538Z,1028.99
2018-04-14T07:18:33.533Z,1028.97
2018-04-14T07:19:33.530Z,1029
2018-04-14T07:20:33.556Z,1029.01
2018-04-14T07:21:33.518Z,1029.11
2018-04-14T07:22:33.512Z,1029.17
2018-04-14T07:23:33.508Z,1029.16
2018-04-14T07:24:33.501Z,1029.12
2018-04-14T07:25:33.496Z,1029.09
2018-04-14T07:26:33.491Z,1028.95
2018-04-14T07:27:33.486Z,1028.8
2018-04-14T07:28:33.482Z,1028.71
2018-04-14T07:29:33.477Z,1028.67
2018-04-14T07:30:33.473Z,1028.73
2018-04-14T07:31:33.466Z,1028.76
2018-04-14T07:32:33.462Z,1028.83
2018-04-14T07:33:33.457Z,1028.73
2018-04-14T07:34:33.455Z,1028.69
2018-04-14T07:35:33.446Z,1028.68
2018-04-14T07:36:33.442Z,1028.61
2018-04-14T07:37:33.455Z,1028.49
2018-04-14T07:38:33.432Z,1028.28
2018-04-14T07:39:33.431Z,1028.07
2018-04-14T07:40:33.422Z,1027.59
2018-04-14T07:41:33.418Z,1027.32
2018-04-14T07:42:33.414Z,1026.52
2018-04-14T07:43:33.409Z,1026.47
2018-04-14T07:44:33.406Z,1026.51
2018-04-14T07:45:33.402Z,1026.2
2018-04-14T07:46:33.398Z,1026.24
2018-04-14T07:47:33.394Z,1026.11
2018-04-14T07:48:33.391Z,1026
2018-04-14T07:49:33.388Z,1026.09
2018-04-14T07:50:33.384Z,1025.95
2018-04-14T07:51:33.382Z,1025.54
2018-04-14T07:52:33.383Z,1024.95
2018-04-14T07:53:33.377Z,1024.46
2018-04-14T07:54:33.376Z,1024.05
2018-04-14T07:55:33.375Z,1024.19
2018-04-14T07:56:33.374Z,1023.95
2018-04-14T07:57:33.373Z,1023.44
2018-04-14T07:58:33.372Z,1023.68
2018-04-14T07:59:33.372Z,1023.5
2018-04-14T08:00:33.371Z,1023.92
2018-04-14T08:01:33.372Z,1024.03
2018-04-14T08:02:33.373Z,1024.16
2018-04-14T08:03:33.374Z,1024.36
2018-04-14T08:04:33.376Z,1024.58
2018-04-14T08:05:33.376Z,1024.77
2018-04-14T08:06:33.377Z,1025.09
2018-04-14T08:07:33.379Z,1025.27
2018-04-14T08:08:33.380Z,1025.51
2018-04-14T08:09:33.381Z,1025.74
2018-04-14T08:10:33.383Z,1025.97
2018-04-14T08:11:33.409Z,1026.15
2018-04-14T08:12:33.384Z,1026.41
2018-04-14T08:13:33.388Z,1026.39
2018-04-14T08:14:33.389Z,1026.47
2018-04-14T08:15:33.389Z,1026.32
2018-04-14T08:16:33.388Z,1026.28
2018-04-14T08:17:33.389Z,1026.32
2018-04-14T08:18:33.389Z,1026.36
2018-04-14T08:19:33.389Z,1026.51
2018-04-14T08:20:33.390Z,1026.67
2018-04-14T08:21:33.390Z,1026.91
2018-04-14T08:22:33.399Z,1026.96
2018-04-14T08:23:33.390Z,1026.99
2018-04-14T08:24:33.391Z,1026.94
2018-04-14T08:25:33.391Z,1026.86
2018-04-14T08:26:33.390Z,1026.82
2018-04-14T08:27:33.391Z,1026.91
2018-04-14T08:28:33.390Z,1026.94
2018-04-14T08:29:33.390Z,1026.94
2018-04-14T08:30:33.393Z,1026.83
2018-04-14T08:31:33.392Z,1026.77
2018-04-14T08:32:33.390Z,1026.78
2018-04-14T08:33:33.388Z,1026.7
2018-04-14T08:34:33.390Z,1026.75
2018-04-14T08:35:33.388Z,1026.7
2018-04-14T08:36:33.391Z,1026.84
2018-04-14T08:37:33.388Z,1026.9
2018-04-14T08:38:33.390Z,1026.9
2018-04-14T08:39:33.387Z,1026.96
2018-04-14T08:40:33.388Z,1026.84
2018-04-14T08:41:33.386Z,1026.77
2018-04-14T08:42:33.386Z,1026.78
2018-04-14T08:43:33.395Z,1026.62
2018-04-14T08:44:33.384Z,1026.4
2018-04-14T08:45:33.384Z,1026.39
2018-04-14T08:46:33.385Z,1026.21
2018-04-14T08:47:33.385Z,1026.11
2018-04-14T08:48:33.384Z,1025.88
2018-04-14T08:49:33.384Z,1025.82
2018-04-14T08:50:33.385Z,1025.85
2018-04-14T08:51:33.388Z,1025.88
2018-04-14T08:52:33.385Z,1025.84
2018-04-14T08:53:33.385Z,1025.92
2018-04-14T08:54:33.385Z,1026
2018-04-14T08:55:33.388Z,1026.09
2018-04-14T08:56:33.386Z,1026.08
2018-04-14T08:57:33.387Z,1025.94
2018-04-14T08:58:33.394Z,1025.83
2018-04-14T08:59:33.388Z,1025.66
2018-04-14T09:00:33.394Z,1025.58
2018-04-14T09:01:33.398Z,1025.46
2018-04-14T09:02:33.392Z,1025.21
2018-04-14T09:03:33.395Z,1025.03
2018-04-14T09:04:33.396Z,1024.85
2018-04-14T09:05:33.396Z,1024.95
2018-04-14T09:06:33.398Z,1025.06
2018-04-14T09:07:33.400Z,1025.24
2018-04-14T09:08:33.402Z,1025.54
2018-04-14T09:09:33.405Z,1025.78
2018-04-14T09:10:33.408Z,1025.98
2018-04-14T09:11:33.408Z,1026.13
2018-04-14T09:12:33.416Z,1026.16
2018-04-14T09:13:33.411Z,1026.18
2018-04-14T09:14:33.413Z,1026.23
2018-04-14T09:15:33.415Z,1026.24
2018-04-14T09:16:33.418Z,1026.24
2018-04-14T09:17:33.419Z,1026.27
2018-04-14T09:18:33.420Z,1026.4
2018-04-14T09:19:33.425Z,1026.37
2018-04-14T09:20:33.424Z,1026.23
2018-04-14T09:21:33.433Z,1026.09
2018-04-14T09:22:33.427Z,1026.07
2018-04-14T09:23:33.428Z,1026.04
2018-04-14T09:24:33.429Z,1025.98
2018-04-14T09:25:33.431Z,1026.1
2018-04-14T09:26:33.440Z,1026.12
2018-04-14T09:27:33.437Z,1026.16
2018-04-14T09:28:33.435Z,1026.17
2018-04-14T09:29:33.437Z,1026.18
2018-04-14T09:30:33.439Z,1026.12
2018-04-14T09:31:33.441Z,1026.12
2018-04-14T09:32:33.442Z,1026.18
2018-04-14T09:33:33.444Z,1026.2
2018-04-14T09:34:33.450Z,1026.2
2018-04-14T09:35:33.448Z,1026.3
2018-04-14T09:36:33.449Z,1026.36
2018-04-14T09:37:33.452Z,1026.5
2018-04-14T09:38:33.452Z,1026.63
2018-04-14T09:39:33.454Z,1026.71
2018-04-14T09:40:33.454Z,1026.76
2018-04-14T09:41:33.457Z,1026.77
2018-04-14T09:42:33.475Z,1026.76
2018-04-14T09:43:33.459Z,1026.74
2018-04-14T09:44:33.464Z,1026.8
2018-04-14T09:45:33.462Z,1026.73
2018-04-14T09:46:33.462Z,1026.67
2018-04-14T09:47:33.464Z,1026.72
2018-04-14T09:48:33.470Z,1026.66
2018-04-14T09:49:33.467Z,1026.8
2018-04-14T09:50:33.467Z,1026.97
2018-04-14T09:51:33.469Z,1027.1
2018-04-14T09:52:33.469Z,1027.01
2018-04-14T09:53:33.471Z,1027.08
2018-04-14T09:54:33.470Z,1027.01
2018-04-14T09:55:33.470Z,1026.96
2018-04-14T09:56:33.472Z,1026.94
2018-04-14T09:57:33.472Z,1026.91
2018-04-14T09:58:33.473Z,1026.77
2018-04-14T09:59:33.476Z,1026.68
2018-04-14T10:00:33.475Z,1026.71
2018-04-14T10:01:33.475Z,1026.75
2018-04-14T10:02:33.479Z,1026.72
2018-04-14T10:03:33.495Z,1026.84
2018-04-14T10:04:33.478Z,1026.85
2018-04-14T10:05:33.478Z,1026.78
2018-04-14T10:06:33.479Z,1026.57
2018-04-14T10:07:33.486Z,1026.53
2018-04-14T10:08:33.482Z,1026.48
2018-04-14T10:09:33.482Z,1026.4
2018-04-14T10:10:33.544Z,1026.33
2018-04-14T10:11:33.486Z,1026.26
2018-04-14T10:12:33.485Z,1026.28
2018-04-14T10:13:33.499Z,1026.39
2018-04-14T10:14:33.488Z,1026.42
2018-04-14T10:15:33.490Z,1026.33
2018-04-14T10:16:33.490Z,1026.34
2018-04-14T10:17:33.496Z,1026.16
2018-04-14T10:18:33.493Z,1026.01
2018-04-14T10:19:33.494Z,1025.94
2018-04-14T10:20:33.495Z,1025.87
2018-04-14T10:21:33.501Z,1025.8
2018-04-14T10:22:33.505Z,1025.92
2018-04-14T10:23:33.500Z,1025.83
2018-04-14T10:24:33.503Z,1025.81
2018-04-14T10:25:33.504Z,1025.92
2018-04-14T10:26:33.507Z,1025.85
2018-04-14T10:27:33.508Z,1025.89
2018-04-14T10:28:33.510Z,1025.85
2018-04-14T10:29:33.511Z,1025.98
2018-04-14T10:30:33.513Z,1026.01
2018-04-14T10:31:33.515Z,1025.92
2018-04-14T10:32:33.523Z,1025.94
2018-04-14T10:33:33.525Z,1025.97
2018-04-14T10:34:33.526Z,1026
2018-04-14T10:35:33.526Z,1026.02
2018-04-14T10:36:33.536Z,1026.02
2018-04-14T10:37:33.531Z,1025.87
2018-04-14T10:38:33.532Z,1025.78
2018-04-14T10:39:33.537Z,1025.76
2018-04-14T10:40:33.538Z,1025.73
2018-04-14T10:41:33.540Z,1025.58
2018-04-14T10:42:33.548Z,1025.68
2018-04-14T10:43:33.548Z,1025.71
2018-04-14T10:44:33.548Z,1025.81
2018-04-14T10:45:33.553Z,1025.82
2018-04-14T10:46:33.560Z,1025.86
2018-04-14T10:47:33.556Z,1025.87
2018-04-14T10:48:33.559Z,1025.87
2018-04-14T10:49:33.563Z,1025.99
2018-04-14T10:50:33.568Z,1026.09
2018-04-14T10:51:33.569Z,1026.13
2018-04-14T10:52:33.572Z,1026.22
2018-04-14T10:53:33.576Z,1026.31
2018-04-14T10:54:33.577Z,1026.33
2018-04-14T10:55:33.579Z,1026.46
2018-04-14T10:56:33.581Z,1026.49
2018-04-14T10:57:33.584Z,1026.42
2018-04-14T10:58:33.587Z,1026.31
2018-04-14T10:59:33.594Z,1026.19
2018-04-14T11:00:33.592Z,1026.08
2018-04-14T11:01:33.597Z,1026.25
2018-04-14T11:02:33.598Z,1026.29
2018-04-14T11:03:33.601Z,1026.53
2018-04-14T11:04:33.602Z,1026.51
2018-04-14T11:05:33.606Z,1026.62
2018-04-14T11:06:33.608Z,1026.58
2018-04-14T11:07:33.609Z,1026.72
2018-04-14T11:08:33.612Z,1026.9
2018-04-14T11:09:33.618Z,1026.93
2018-04-14T11:10:33.616Z,1026.86
2018-04-14T11:11:33.617Z,1026.92
2018-04-14T11:12:33.620Z,1026.96
2018-04-14T11:13:33.622Z,1027.17
2018-04-14T11:14:33.624Z,1027.18
2018-04-14T11:15:33.627Z,1027.16
2018-04-14T11:16:33.630Z,1027.23
2018-04-14T11:17:33.629Z,1027.13
2018-04-14T11:18:33.630Z,1027.04
2018-04-14T11:19:33.633Z,1026.97
2018-04-14T11:20:33.663Z,1026.89
2018-04-14T11:21:33.635Z,1026.87
2018-04-14T11:22:33.637Z,1026.88
2018-04-14T11:23:33.638Z,1026.87
2018-04-14T11:24:33.640Z,1026.8
2018-04-14T11:25:33.641Z,1026.79
2018-04-14T11:26:33.643Z,1026.81
2018-04-14T11:27:33.645Z,1026.81
2018-04-14T11:28:33.647Z,1026.81
2018-04-14T11:29:33.647Z,1026.73
2018-04-14T11:30:33.649Z,1026.64
2018-04-14T11:31:33.653Z,1026.5
2018-04-14T11:32:33.653Z,1026.36
2018-04-14T11:33:33.655Z,1026.23
2018-04-14T11:34:33.665Z,1026.22
2018-04-14T11:35:33.658Z,1026.35
2018-04-14T11:36:33.659Z,1026.4
2018-04-14T11:37:33.662Z,1026.51
2018-04-14T11:38:33.667Z,1026.47
2018-04-14T11:39:33.665Z,1026.66
2018-04-14T11:40:33.666Z,1026.69
2018-04-14T11:41:33.668Z,1026.85
2018-04-14T11:42:33.687Z,1026.89
2018-04-14T11:43:33.674Z,1026.99
2018-04-14T11:44:33.679Z,1026.99
2018-04-14T11:45:33.675Z,1027.05
2018-04-14T11:46:33.679Z,1027.05
2018-04-14T11:47:33.679Z,1027.08
2018-04-14T11:48:33.680Z,1027.06
2018-04-14T11:49:33.686Z,1027.06
2018-04-14T11:50:33.684Z,1026.97
2018-04-14T11:51:33.688Z,1026.82
2018-04-14T11:52:33.686Z,1026.83
2018-04-14T11:53:33.690Z,1026.78
2018-04-14T11:54:33.690Z,1026.61
2018-04-14T11:55:33.689Z,1026.61
2018-04-14T11:56:33.692Z,1026.68
2018-04-14T11:57:33.693Z,1026.64
2018-04-14T11:58:33.694Z,1026.76
2018-04-14T11:59:33.700Z,1026.88
2018-04-14T12:00:33.697Z,1026.87
2018-04-14T12:01:33.707Z,1026.89
2018-04-14T12:02:33.700Z,1026.75
2018-04-14T12:03:33.706Z,1026.84
2018-04-14T12:04:33.705Z,1026.88
2018-04-14T12:05:33.704Z,1026.83
2018-04-14T12:06:33.712Z,1026.8
2018-04-14T12:07:33.708Z,1026.83
2018-04-14T12:08:33.710Z,1026.63